Time;durP1;ratioP1;P1;durP2;ratioP2;P2;SDS_P1;SDS_P2;PMS_P1;PMS_P2;Temp;Humidity;BMP_temperature;BMP_pressure;BME280_temperature;BME280_humidity;BME280_pressure;Samples;Min_cycle;Max_cycle;Signal;HPM_P1;HPM_P2
2023/11/07 00:00:03;;;;;;;9.60;3.08;;;9.90;99.90;;;;;;4963976;28;20114;-83
2023/11/07 00:02:28;;;;;;;8.25;3.38;;;9.90;99.90;;;;;;4957350;28;20035;-83
2023/11/07 00:04:55;;;;;;;10.27;3.25;;;9.70;99.90;;;;;;4969170;28;20023;-84
2023/11/07 00:07:24;;;;;;;12.15;3.25;;;9.90;99.90;;;;;;4956852;28;20039;-84
2023/11/07 00:09:50;;;;;;;6.70;2.78;;;9.90;99.90;;;;;;4961378;28;20479;-84
2023/11/07 00:12:17;;;;;;;6.38;2.50;;;9.90;99.90;;;;;;4965487;28;20085;-84
2023/11/07 00:14:43;;;;;;;10.02;2.70;;;10.00;99.90;;;;;;4976284;28;20534;-84
2023/11/07 00:17:10;;;;;;;13.55;3.00;;;10.00;99.90;;;;;;4976392;28;20035;-83
2023/11/07 00:19:36;;;;;;;10.10;3.30;;;10.00;99.90;;;;;;4966006;28;20491;-84
2023/11/07 00:22:02;;;;;;;10.02;2.75;;;10.00;99.90;;;;;;4976522;28;20042;-84
2023/11/07 00:24:27;;;;;;;7.82;2.72;;;10.00;99.90;;;;;;4974508;28;20039;-84
2023/11/07 00:26:53;;;;;;;8.65;3.00;;;10.00;99.90;;;;;;4970493;28;20019;-84
2023/11/07 00:29:21;;;;;;;7.07;2.22;;;10.10;99.90;;;;;;4973896;28;20077;-84
2023/11/07 00:31:47;;;;;;;10.18;2.40;;;10.00;99.90;;;;;;4970654;28;20047;-84
2023/11/07 00:34:16;;;;;;;14.23;2.30;;;10.00;99.90;;;;;;4956341;29;20027;-84
2023/11/07 00:36:42;;;;;;;7.78;2.40;;;10.10;99.90;;;;;;4964962;28;20800;-84
2023/11/07 00:39:08;;;;;;;19.25;3.38;;;10.00;99.90;;;;;;4956940;28;20400;-84
2023/11/07 00:41:33;;;;;;;14.82;3.25;;;10.00;99.90;;;;;;4955696;28;20033;-84
2023/11/07 00:44:01;;;;;;;4.72;2.47;;;10.00;99.90;;;;;;4964139;28;20027;-84
2023/11/07 00:46:27;;;;;;;8.20;3.47;;;10.00;99.90;;;;;;4975219;28;20034;-84
2023/11/07 00:48:52;;;;;;;7.60;2.40;;;10.00;99.90;;;;;;4975785;28;20031;-84
2023/11/07 00:51:18;;;;;;;11.07;3.35;;;10.10;99.90;;;;;;4968529;28;20027;-83
2023/11/07 00:53:44;;;;;;;6.72;3.22;;;10.00;99.90;;;;;;4966993;28;20041;-84
2023/11/07 00:56:09;;;;;;;8.05;2.35;;;10.10;99.90;;;;;;4969459;28;20023;-85
2023/11/07 00:58:35;;;;;;;8.13;2.72;;;10.10;99.90;;;;;;4956045;28;20397;-84
2023/11/07 01:01:01;;;;;;;7.45;2.13;;;10.10;99.90;;;;;;4956332;28;20027;-84
2023/11/07 01:03:27;;;;;;;7.90;2.85;;;10.10;99.90;;;;;;4955819;28;20086;-84
2023/11/07 01:05:53;;;;;;;5.63;2.38;;;10.10;99.90;;;;;;4971144;28;20356;-84
2023/11/07 01:08:19;;;;;;;9.93;3.33;;;10.10;99.90;;;;;;4956128;28;20035;-84
2023/11/07 01:10:45;;;;;;;8.95;2.13;;;10.10;99.90;;;;;;4968713;28;20146;-85
2023/11/07 01:13:11;;;;;;;5.80;2.13;;;10.10;99.90;;;;;;4972574;28;20471;-84
2023/11/07 01:15:38;;;;;;;11.23;2.65;;;10.00;99.90;;;;;;4955280;28;20494;-84
2023/11/07 01:18:07;;;;;;;8.50;2.17;;;10.10;99.90;;;;;;4956498;28;20070;-84
2023/11/07 01:20:33;;;;;;;3.33;2.05;;;10.20;99.90;;;;;;4955817;28;20480;-84
2023/11/07 01:22:59;;;;;;;10.48;3.25;;;10.20;99.90;;;;;;4955502;28;20471;-84
2023/11/07 01:25:24;;;;;;;10.95;2.45;;;10.20;99.90;;;;;;4955943;28;20139;-84
2023/11/07 01:27:52;;;;;;;5.70;2.88;;;10.20;99.90;;;;;;4961494;28;20479;-84
2023/11/07 01:30:17;;;;;;;9.15;2.30;;;10.20;99.90;;;;;;4957757;28;20055;-85
2023/11/07 01:32:43;;;;;;;10.43;2.33;;;10.20;99.90;;;;;;4955807;28;20037;-85
2023/11/07 01:35:12;;;;;;;10.52;2.50;;;10.10;99.90;;;;;;4956124;28;20031;-83
2023/11/07 01:37:37;;;;;;;5.95;2.60;;;10.20;99.90;;;;;;4955207;28;20042;-84
2023/11/07 01:40:04;;;;;;;8.57;2.55;;;10.20;99.90;;;;;;4967734;28;20411;-85
2023/11/07 01:42:29;;;;;;;10.77;3.05;;;10.20;99.90;;;;;;4974411;28;20030;-84
2023/11/07 01:44:55;;;;;;;8.95;2.78;;;10.20;99.90;;;;;;4974513;28;20536;-84
2023/11/07 01:47:25;;;;;;;10.70;2.83;;;10.20;99.90;;;;;;4974918;28;20050;-85
2023/11/07 01:49:52;;;;;;;6.72;2.80;;;10.20;99.90;;;;;;4974684;28;20027;-85
2023/11/07 01:52:18;;;;;;;8.65;2.65;;;10.20;99.90;;;;;;4971804;28;20042;-85
2023/11/07 01:54:46;;;;;;;6.47;2.63;;;10.20;99.90;;;;;;4966560;28;20031;-85
2023/11/07 01:57:13;;;;;;;6.75;2.17;;;10.20;99.90;;;;;;4966602;28;20070;-85
2023/11/07 01:59:40;;;;;;;7.40;2.90;;;10.20;99.90;;;;;;4974057;28;20031;-85
2023/11/07 02:02:10;;;;;;;6.68;2.90;;;10.10;99.90;;;;;;4957572;28;20053;-85
2023/11/07 02:04:36;;;;;;;10.00;3.00;;;10.10;99.90;;;;;;4954888;28;20030;-85
2023/11/07 02:07:01;;;;;;;10.18;2.78;;;10.10;99.90;;;;;;4955407;28;20039;-84
2023/11/07 02:09:27;;;;;;;9.27;3.15;;;10.10;99.90;;;;;;4955386;28;20464;-85
2023/11/07 02:11:53;;;;;;;11.13;2.88;;;10.20;99.90;;;;;;4955062;28;20023;-85
2023/11/07 02:14:28;;;;;;;8.10;2.60;;;10.10;99.90;;;;;;4973028;28;20034;-85
2023/11/07 02:16:54;;;;;;;12.13;4.53;;;10.10;99.90;;;;;;4962989;28;20494;-85
2023/11/07 02:19:20;;;;;;;5.80;2.53;;;10.20;99.90;;;;;;4973803;28;20065;-84
2023/11/07 02:21:46;;;;;;;11.27;3.00;;;10.20;99.90;;;;;;4974487;28;20077;-85
2023/11/07 02:24:12;;;;;;;9.52;3.55;;;10.20;99.90;;;;;;4957005;28;20034;-85
2023/11/07 02:26:37;;;;;;;4.45;2.30;;;10.20;99.90;;;;;;4954103;28;20067;-85
2023/11/07 02:29:03;;;;;;;9.77;3.28;;;10.10;99.90;;;;;;4955361;28;20059;-85
2023/11/07 02:31:29;;;;;;;15.75;3.58;;;10.20;99.90;;;;;;4956005;28;20404;-84
2023/11/07 02:33:54;;;;;;;6.60;2.60;;;10.20;99.90;;;;;;4973975;28;20031;-84
2023/11/07 02:36:20;;;;;;;10.77;3.90;;;10.20;99.90;;;;;;4974266;28;20383;-84
2023/11/07 02:38:45;;;;;;;12.30;3.35;;;10.10;99.90;;;;;;4974032;28;20022;-84
2023/11/07 02:41:11;;;;;;;13.75;3.05;;;10.10;99.90;;;;;;4963024;28;20468;-84
2023/11/07 02:43:37;;;;;;;9.45;3.22;;;10.10;99.90;;;;;;4955369;28;20475;-85
2023/11/07 02:46:02;;;;;;;7.28;3.08;;;10.10;99.90;;;;;;4973712;28;20505;-84
2023/11/07 02:48:28;;;;;;;9.77;3.42;;;10.10;99.90;;;;;;4969194;28;20032;-86
2023/11/07 02:50:55;;;;;;;6.25;3.38;;;10.10;99.90;;;;;;4955062;28;20487;-86
2023/11/07 02:53:21;;;;;;;6.97;3.63;;;10.10;99.90;;;;;;4954286;28;20062;-84
2023/11/07 02:55:46;;;;;;;7.68;3.83;;;10.10;99.90;;;;;;4954233;28;20059;-83
2023/11/07 02:58:13;;;;;;;14.95;4.30;;;10.10;99.90;;;;;;4954731;28;20030;-84
2023/11/07 03:00:39;;;;;;;6.93;3.70;;;10.10;99.90;;;;;;4954071;28;20042;-86
2023/11/07 03:03:04;;;;;;;5.97;3.28;;;10.00;99.90;;;;;;4959859;28;20031;-84
2023/11/07 03:05:30;;;;;;;7.95;3.20;;;10.00;99.90;;;;;;4954349;28;20093;-83
2023/11/07 03:07:57;;;;;;;7.20;3.33;;;10.00;99.90;;;;;;4954280;28;20121;-84
2023/11/07 03:10:23;;;;;;;7.68;3.45;;;10.00;99.90;;;;;;4960881;28;20023;-85
2023/11/07 03:12:49;;;;;;;6.05;3.10;;;10.10;99.90;;;;;;4973738;28;20121;-85
2023/11/07 03:15:15;;;;;;;7.43;3.30;;;10.10;99.90;;;;;;4973982;28;20039;-83
2023/11/07 03:17:41;;;;;;;8.63;3.67;;;10.10;99.90;;;;;;4980501;28;20038;-84
2023/11/07 03:20:08;;;;;;;9.10;3.22;;;10.10;99.90;;;;;;4977425;28;20028;-85
2023/11/07 03:22:34;;;;;;;6.38;2.70;;;10.00;99.90;;;;;;4964804;28;20042;-85
2023/11/07 03:25:00;;;;;;;9.02;3.17;;;10.00;99.90;;;;;;4961107;28;20019;-83
2023/11/07 03:27:25;;;;;;;8.10;2.95;;;10.10;99.90;;;;;;4960164;28;20035;-86
2023/11/07 03:29:51;;;;;;;4.28;2.50;;;10.00;99.90;;;;;;4964680;28;20534;-86
2023/11/07 03:32:16;;;;;;;7.45;2.75;;;10.10;99.90;;;;;;4973899;28;20053;-86
2023/11/07 03:34:42;;;;;;;5.88;3.13;;;10.00;99.90;;;;;;4973465;28;20372;-86
2023/11/07 03:37:08;;;;;;;8.43;2.90;;;10.00;99.90;;;;;;4973224;28;20085;-84
2023/11/07 03:39:33;;;;;;;6.65;2.72;;;10.00;99.90;;;;;;4973309;28;20051;-84
2023/11/07 03:41:59;;;;;;;5.32;2.50;;;10.00;99.90;;;;;;4973456;28;20065;-86
2023/11/07 03:44:25;;;;;;;8.48;2.70;;;9.90;99.90;;;;;;4972626;28;20050;-86
2023/11/07 03:46:50;;;;;;;5.20;2.00;;;10.00;99.90;;;;;;4973802;28;20023;-83
2023/11/07 03:49:16;;;;;;;4.45;2.40;;;9.90;99.90;;;;;;4973360;28;20067;-86
2023/11/07 03:51:42;;;;;;;4.45;2.33;;;9.90;99.90;;;;;;4974039;28;20031;-84
2023/11/07 03:54:07;;;;;;;5.22;2.42;;;9.90;99.90;;;;;;4973421;28;20038;-86
2023/11/07 03:56:33;;;;;;;8.27;2.78;;;9.90;99.90;;;;;;4957864;28;20031;-84
2023/11/07 03:58:59;;;;;;;4.22;2.60;;;9.90;99.90;;;;;;4957075;28;20065;-84
2023/11/07 04:01:37;;;;;;;5.60;2.47;;;9.90;99.90;;;;;;4957551;28;20027;-83
2023/11/07 04:04:03;;;;;;;7.72;2.30;;;9.90;99.90;;;;;;4967114;28;20026;-83
2023/11/07 04:06:30;;;;;;;5.45;2.50;;;9.80;99.90;;;;;;4976268;28;20026;-84
2023/11/07 04:08:55;;;;;;;7.82;3.30;;;9.80;99.90;;;;;;4977081;28;20035;-84
2023/11/07 04:11:21;;;;;;;8.68;2.38;;;9.80;99.90;;;;;;4975158;28;20434;-84
2023/11/07 04:13:47;;;;;;;5.75;2.60;;;9.80;99.90;;;;;;4957602;28;20110;-84
2023/11/07 04:16:13;;;;;;;7.10;2.20;;;9.80;99.90;;;;;;4972929;28;20031;-84
2023/11/07 04:18:39;;;;;;;4.88;2.70;;;9.80;99.90;;;;;;4969721;28;20452;-84
2023/11/07 04:21:07;;;;;;;5.10;2.72;;;9.80;99.90;;;;;;4957167;28;20051;-86
2023/11/07 04:23:33;;;;;;;4.82;2.22;;;9.70;99.90;;;;;;4969113;28;20463;-84
2023/11/07 04:25:59;;;;;;;7.32;2.95;;;9.70;99.90;;;;;;4957998;28;20063;-86
2023/11/07 04:28:25;;;;;;;7.40;2.40;;;9.60;99.90;;;;;;4957102;28;20027;-86
2023/11/07 04:30:52;;;;;;;8.82;2.58;;;9.60;99.90;;;;;;4956948;28;20122;-86
2023/11/07 04:33:18;;;;;;;7.93;2.53;;;9.60;99.90;;;;;;4968342;28;20031;-86
2023/11/07 04:35:44;;;;;;;11.13;3.35;;;9.60;99.90;;;;;;4976347;28;20097;-85
2023/11/07 04:38:10;;;;;;;7.15;3.45;;;9.60;99.90;;;;;;4976165;28;20348;-85
2023/11/07 04:40:36;;;;;;;4.10;2.55;;;9.60;99.90;;;;;;4970545;28;20117;-86
2023/11/07 04:43:02;;;;;;;5.47;2.67;;;9.60;99.90;;;;;;4958084;28;20043;-86
2023/11/07 04:45:28;;;;;;;6.70;3.13;;;10.10;99.90;;;;;;4975691;28;20053;-86
2023/11/07 04:47:54;;;;;;;9.18;2.90;;;9.50;99.90;;;;;;4968767;28;20030;-84
2023/11/07 04:50:21;;;;;;;5.47;2.38;;;9.50;99.90;;;;;;4956646;28;20031;-86
2023/11/07 04:52:47;;;;;;;6.88;3.40;;;9.50;99.90;;;;;;4956886;28;20037;-86
2023/11/07 04:55:12;;;;;;;9.52;3.42;;;9.50;99.90;;;;;;4956572;28;20106;-85
2023/11/07 04:57:38;;;;;;;7.57;2.90;;;9.50;99.90;;;;;;4956503;28;20028;-84
2023/11/07 05:00:05;;;;;;;4.30;3.28;;;9.50;99.90;;;;;;4960164;28;20038;-85
2023/11/07 05:02:31;;;;;;;5.35;2.83;;;9.50;99.90;;;;;;4975026;28;20031;-85
2023/11/07 05:04:56;;;;;;;5.32;3.10;;;9.50;99.90;;;;;;4962755;28;20073;-84
2023/11/07 05:07:22;;;;;;;8.88;3.45;;;9.50;99.90;;;;;;4956069;28;20047;-84
2023/11/07 05:09:48;;;;;;;10.25;3.15;;;9.40;99.90;;;;;;4960271;28;20027;-84
2023/11/07 05:12:13;;;;;;;5.85;2.88;;;9.40;99.90;;;;;;4968911;28;20050;-84
2023/11/07 05:14:39;;;;;;;12.32;4.00;;;9.40;99.90;;;;;;4955679;28;20027;-83
2023/11/07 05:17:04;;;;;;;7.25;3.05;;;9.40;99.90;;;;;;4956238;28;20472;-83
2023/11/07 05:19:30;;;;;;;7.13;3.60;;;9.40;99.90;;;;;;4956106;28;20026;-82
2023/11/07 05:21:56;;;;;;;5.80;3.47;;;9.40;99.90;;;;;;4967272;28;20403;-85
2023/11/07 05:24:23;;;;;;;7.60;3.53;;;9.40;99.90;;;;;;4974629;28;20466;-85
2023/11/07 05:26:48;;;;;;;7.38;4.00;;;9.40;99.90;;;;;;4957662;28;20027;-85
2023/11/07 05:29:15;;;;;;;7.43;3.20;;;9.40;99.90;;;;;;4963110;28;20356;-86
2023/11/07 05:31:41;;;;;;;5.18;3.53;;;9.40;99.90;;;;;;4974825;28;20047;-83
2023/11/07 05:34:07;;;;;;;6.13;3.15;;;9.40;99.90;;;;;;4975313;28;20035;-84
2023/11/07 05:36:33;;;;;;;7.13;3.08;;;9.40;99.90;;;;;;4974567;28;20023;-84
2023/11/07 05:38:59;;;;;;;8.65;3.45;;;9.40;99.90;;;;;;4975245;28;20026;-84
2023/11/07 05:41:27;;;;;;;4.80;3.45;;;9.40;99.90;;;;;;4970357;28;20542;-84
2023/11/07 05:43:54;;;;;;;7.95;3.83;;;9.40;99.90;;;;;;4973455;28;20077;-84
2023/11/07 05:46:21;;;;;;;4.53;3.25;;;9.40;99.90;;;;;;4967323;28;20027;-84
2023/11/07 05:48:50;;;;;;;6.30;3.42;;;9.40;99.90;;;;;;4975235;28;20065;-84
2023/11/07 05:51:15;;;;;;;5.00;3.10;;;9.30;99.90;;;;;;4974133;28;20030;-85
2023/11/07 05:53:41;;;;;;;9.10;3.47;;;9.30;99.90;;;;;;4955329;28;20051;-84
2023/11/07 05:56:06;;;;;;;6.25;3.00;;;9.30;99.90;;;;;;4955715;28;20042;-83
2023/11/07 05:58:32;;;;;;;5.72;3.65;;;9.30;99.90;;;;;;4954817;28;20020;-83
2023/11/07 06:00:58;;;;;;;6.78;3.50;;;9.60;99.90;;;;;;4955336;28;20415;-86
2023/11/07 06:03:23;;;;;;;4.57;3.28;;;9.30;99.90;;;;;;4961089;28;20086;-83
2023/11/07 06:05:49;;;;;;;5.10;3.42;;;9.30;99.90;;;;;;4957393;28;20030;-85
2023/11/07 06:08:14;;;;;;;5.97;3.30;;;9.30;99.90;;;;;;4955391;28;20427;-83
2023/11/07 06:10:40;;;;;;;10.68;3.50;;;9.30;99.90;;;;;;4954990;28;20555;-84
2023/11/07 06:13:06;;;;;;;6.85;3.72;;;9.30;99.90;;;;;;4958542;28;20057;-85
2023/11/07 06:15:32;;;;;;;10.20;3.20;;;9.30;99.90;;;;;;4953730;28;20027;-85
2023/11/07 06:17:58;;;;;;;5.50;3.10;;;9.30;99.90;;;;;;4952519;28;20045;-85
2023/11/07 06:20:23;;;;;;;7.78;3.72;;;9.30;99.90;;;;;;4954385;28;20082;-85
2023/11/07 06:22:50;;;;;;;6.90;3.33;;;9.30;99.90;;;;;;4957362;28;20043;-85
2023/11/07 06:25:16;;;;;;;5.55;2.78;;;9.30;99.90;;;;;;4968319;28;20090;-84
2023/11/07 06:27:42;;;;;;;4.55;2.85;;;9.30;99.90;;;;;;4959087;28;20027;-90
2023/11/07 06:30:09;;;;;;;5.32;2.67;;;9.30;99.90;;;;;;4971928;28;20089;-86
2023/11/07 06:32:35;;;;;;;4.72;2.88;;;9.30;99.90;;;;;;4993540;28;20057;-83
2023/11/07 06:35:01;;;;;;;6.38;2.92;;;9.20;99.90;;;;;;4969677;28;20026;-83
2023/11/07 06:37:33;;;;;;;9.90;3.13;;;9.20;99.90;;;;;;4966458;28;20043;-86
2023/11/07 06:40:07;;;;;;;4.72;2.88;;;9.20;99.90;;;;;;4960436;28;20055;-83
2023/11/07 06:42:34;;;;;;;9.38;3.10;;;9.30;99.90;;;;;;4954190;28;20511;-84
2023/11/07 06:45:02;;;;;;;6.65;2.85;;;9.30;99.90;;;;;;4960565;28;20034;-86
2023/11/07 06:47:28;;;;;;;6.55;2.55;;;9.30;99.90;;;;;;4957311;28;20031;-84
2023/11/07 06:49:54;;;;;;;3.78;2.40;;;9.40;99.90;;;;;;4974407;28;20053;-84
2023/11/07 06:52:20;;;;;;;5.50;2.85;;;9.30;99.90;;;;;;4973320;28;20527;-84
2023/11/07 06:54:47;;;;;;;4.47;2.90;;;9.30;99.90;;;;;;4959393;28;20027;-84
2023/11/07 06:57:13;;;;;;;5.93;2.80;;;9.30;99.90;;;;;;4955884;28;20095;-84
2023/11/07 06:59:38;;;;;;;5.32;2.45;;;9.30;99.90;;;;;;4973777;28;20051;-86
2023/11/07 07:02:04;;;;;;;4.85;2.92;;;9.30;99.90;;;;;;4973374;28;20035;-84
2023/11/07 07:04:30;;;;;;;3.58;2.50;;;9.30;99.90;;;;;;4973282;28;20062;-84
2023/11/07 07:06:55;;;;;;;9.13;3.10;;;9.20;99.90;;;;;;4967013;28;20035;-85
2023/11/07 07:09:21;;;;;;;4.60;2.85;;;9.20;99.90;;;;;;4958476;28;20039;-85
2023/11/07 07:11:47;;;;;;;4.63;3.35;;;9.30;99.90;;;;;;4954657;28;20059;-84
2023/11/07 07:14:13;;;;;;;3.90;3.00;;;9.30;99.90;;;;;;4954111;28;20031;-84
2023/11/07 07:16:40;;;;;;;6.85;3.50;;;9.30;99.90;;;;;;4969148;28;20497;-84
2023/11/07 07:19:06;;;;;;;3.47;3.10;;;9.20;99.90;;;;;;4973340;28;20043;-84
2023/11/07 07:21:34;;;;;;;8.98;4.00;;;9.20;99.90;;;;;;4972780;28;20073;-84
2023/11/07 07:24:08;;;;;;;4.65;3.42;;;9.20;99.90;;;;;;4973774;28;20042;-84
2023/11/07 07:26:34;;;;;;;6.60;2.88;;;9.20;99.90;;;;;;4969519;28;20614;-85
2023/11/07 07:28:59;;;;;;;6.40;3.10;;;9.30;99.90;;;;;;4972437;28;20110;-89
2023/11/07 07:31:27;;;;;;;6.47;3.92;;;9.10;99.90;;;;;;4976433;28;20499;-84
2023/11/07 07:33:53;;;;;;;3.97;3.22;;;9.20;99.90;;;;;;4977216;28;20026;-84
2023/11/07 07:36:22;;;;;;;5.05;3.15;;;9.20;99.90;;;;;;4976266;28;20059;-84
2023/11/07 07:38:48;;;;;;;4.35;3.10;;;9.10;99.90;;;;;;4975846;28;20483;-86
2023/11/07 07:41:14;;;;;;;5.55;3.78;;;9.10;99.90;;;;;;4975257;28;20030;-83
2023/11/07 07:43:39;;;;;;;8.70;3.20;;;9.10;99.90;;;;;;4988973;28;20042;-88
2023/11/07 07:46:07;;;;;;;7.15;3.38;;;9.10;99.90;;;;;;5000426;28;20049;-91
2023/11/07 07:48:32;;;;;;;6.03;2.85;;;9.20;99.90;;;;;;4986069;28;20114;-86
2023/11/07 07:50:59;;;;;;;5.95;4.13;;;9.20;99.90;;;;;;4980708;28;20105;-83
2023/11/07 07:53:24;;;;;;;5.03;3.33;;;9.20;99.90;;;;;;4975196;28;20027;-86
2023/11/07 07:55:50;;;;;;;4.55;3.38;;;9.20;99.90;;;;;;4976598;28;20023;-86
2023/11/07 07:58:19;;;;;;;7.00;3.75;;;9.20;99.90;;;;;;4974999;28;20037;-85
2023/11/07 08:00:52;;;;;;;7.50;3.47;;;9.20;99.90;;;;;;4973012;28;20023;-88
2023/11/07 08:03:18;;;;;;;8.27;3.55;;;9.20;99.90;;;;;;4978142;28;20546;-87
2023/11/07 08:05:44;;;;;;;6.65;3.22;;;9.30;99.90;;;;;;4985190;28;20019;-88
2023/11/07 08:08:11;;;;;;;4.03;3.10;;;9.30;99.90;;;;;;4981689;28;20023;-86
2023/11/07 08:10:37;;;;;;;6.78;3.45;;;9.90;99.90;;;;;;4982597;28;20026;-87
2023/11/07 08:13:06;;;;;;;7.85;3.25;;;9.30;99.90;;;;;;4983431;28;20026;-88
2023/11/07 08:15:34;;;;;;;4.50;2.80;;;9.30;99.90;;;;;;4981454;28;20037;-87
2023/11/07 08:18:02;;;;;;;31.63;3.90;;;9.30;99.90;;;;;;4985403;28;20030;-88
2023/11/07 08:20:28;;;;;;;6.72;3.17;;;9.30;99.90;;;;;;4983858;28;20036;-86
2023/11/07 08:22:54;;;;;;;5.18;3.00;;;9.40;99.90;;;;;;4984261;28;20382;-87
2023/11/07 08:25:21;;;;;;;4.10;3.10;;;9.30;99.90;;;;;;4984555;28;20080;-88
2023/11/07 08:27:48;;;;;;;7.13;3.80;;;9.40;99.90;;;;;;4993196;28;20026;-87
2023/11/07 08:30:17;;;;;;;4.22;3.03;;;9.40;99.90;;;;;;4996367;28;20054;-88
2023/11/07 08:32:43;;;;;;;5.88;3.00;;;9.30;99.90;;;;;;4996026;28;20038;-86
2023/11/07 08:35:11;;;;;;;3.70;2.78;;;9.40;99.90;;;;;;4996712;28;20493;-87
2023/11/07 08:37:55;;;;;;;7.65;3.15;;;9.30;99.90;;;;;;5001855;28;20019;-84
2023/11/07 08:40:22;;;;;;;7.15;3.10;;;9.40;99.90;;;;;;4980348;28;20055;-85
2023/11/07 08:42:50;;;;;;;7.80;2.40;;;9.40;99.90;;;;;;4957113;28;20126;-84
2023/11/07 08:45:18;;;;;;;4.43;2.88;;;9.50;99.90;;;;;;4958763;28;20496;-86
2023/11/07 08:47:50;;;;;;;5.50;2.75;;;9.50;99.90;;;;;;4975367;28;20031;-85
2023/11/07 08:50:18;;;;;;;5.90;2.75;;;9.50;99.90;;;;;;4976584;28;20039;-85
2023/11/07 08:52:44;;;;;;;3.78;2.60;;;9.50;99.90;;;;;;4956275;28;20506;-86
2023/11/07 08:55:11;;;;;;;5.20;2.15;;;9.50;99.90;;;;;;4957278;28;20028;-85
2023/11/07 08:57:39;;;;;;;6.03;2.70;;;9.50;99.90;;;;;;4956190;28;20058;-86
2023/11/07 09:00:07;;;;;;;3.78;2.63;;;9.50;99.90;;;;;;4963073;28;20026;-85
2023/11/07 09:02:33;;;;;;;5.00;2.70;;;9.50;99.90;;;;;;4956097;28;20446;-85
2023/11/07 09:04:59;;;;;;;3.30;2.90;;;9.50;99.90;;;;;;4974847;28;20027;-83
2023/11/07 09:07:25;;;;;;;8.85;2.58;;;9.50;99.90;;;;;;4975302;28;20030;-84
2023/11/07 09:09:51;;;;;;;7.05;2.42;;;10.10;99.90;;;;;;4975760;28;20023;-84
2023/11/07 09:12:16;;;;;;;4.07;2.33;;;9.60;99.90;;;;;;4975565;28;20027;-84
2023/11/07 09:14:42;;;;;;;4.10;2.38;;;9.70;99.90;;;;;;4976483;28;20426;-83
2023/11/07 09:17:07;;;;;;;3.33;2.20;;;9.70;99.90;;;;;;4991633;28;20498;-85
2023/11/07 09:19:33;;;;;;;5.45;2.67;;;9.70;99.90;;;;;;4995765;28;20023;-85
2023/11/07 09:22:00;;;;;;;10.57;2.30;;;9.70;99.90;;;;;;4988257;28;20027;-84
2023/11/07 09:24:25;;;;;;;6.03;2.35;;;9.70;99.90;;;;;;4983424;28;20105;-84
2023/11/07 09:26:51;;;;;;;5.15;2.50;;;9.80;99.90;;;;;;4984984;28;20061;-85
2023/11/07 09:29:16;;;;;;;6.57;2.63;;;9.80;99.90;;;;;;4981508;28;20105;-85
2023/11/07 09:31:43;;;;;;;5.25;2.13;;;9.80;99.90;;;;;;4975264;28;20122;-84
2023/11/07 09:34:09;;;;;;;5.13;2.17;;;9.90;99.90;;;;;;4974994;28;20023;-84
2023/11/07 09:36:38;;;;;;;2.63;2.17;;;10.70;99.90;;;;;;4981991;28;20109;-86
2023/11/07 09:39:06;;;;;;;5.90;2.10;;;9.90;99.90;;;;;;4986520;28;20146;-84
2023/11/07 09:41:32;;;;;;;5.30;1.95;;;9.90;99.90;;;;;;4989079;28;20027;-85
2023/11/07 09:44:01;;;;;;;4.57;2.13;;;9.90;99.90;;;;;;4989126;28;20090;-84
2023/11/07 09:46:27;;;;;;;6.65;2.30;;;10.00;99.90;;;;;;4992051;28;20042;-85
2023/11/07 09:48:53;;;;;;;3.38;1.88;;;10.00;99.90;;;;;;4990835;28;20023;-85
2023/11/07 09:51:21;;;;;;;4.97;2.10;;;10.00;99.90;;;;;;4984247;28;20078;-85
2023/11/07 09:53:50;;;;;;;3.28;1.70;;;10.10;99.90;;;;;;4991798;28;20034;-88
2023/11/07 09:56:16;;;;;;;7.30;2.47;;;10.30;99.90;;;;;;4995903;28;20039;-95
2023/11/07 09:58:48;;;;;;;8.70;2.50;;;10.10;99.90;;;;;;4996626;28;20034;-93
2023/11/07 10:01:14;;;;;;;6.90;2.55;;;10.20;99.90;;;;;;5029524;23;20034;-92
2023/11/07 10:03:43;;;;;;;6.30;2.00;;;10.20;99.90;;;;;;4988373;28;20118;-91
2023/11/07 10:06:08;;;;;;;7.07;2.47;;;10.20;99.90;;;;;;4979471;28;20011;-90
2023/11/07 10:08:34;;;;;;;5.25;1.60;;;10.20;99.90;;;;;;4968177;28;20030;-93
2023/11/07 10:11:15;;;;;;;4.80;2.15;;;10.20;99.90;;;;;;4967157;28;20383;-93
2023/11/07 10:14:01;;;;;;;6.88;2.25;;;10.30;99.90;;;;;;4964738;28;20035;-87
2023/11/07 10:16:39;;;;;;;5.22;2.33;;;10.40;99.90;;;;;;4956171;28;20051;-88
2023/11/07 10:19:07;;;;;;;3.55;1.50;;;10.40;99.90;;;;;;4954874;28;20445;-84
2023/11/07 10:21:34;;;;;;;4.20;1.98;;;10.40;99.90;;;;;;4954947;28;20050;-86
2023/11/07 10:24:00;;;;;;;5.88;2.13;;;10.50;99.90;;;;;;4955324;28;20089;-86
2023/11/07 10:26:25;;;;;;;8.27;1.98;;;10.50;99.90;;;;;;4967928;28;20031;-84
2023/11/07 10:29:13;;;;;;;9.43;2.13;;;10.50;99.90;;;;;;4977040;28;20041;-86
2023/11/07 10:31:42;;;;;;;9.25;2.00;;;10.50;99.90;;;;;;4975927;28;20033;-87
2023/11/07 10:34:19;;;;;;;9.90;2.53;;;10.50;99.90;;;;;;4974147;28;20023;-86
2023/11/07 10:36:45;;;;;;;9.80;1.67;;;10.50;99.90;;;;;;4973999;28;20382;-86
2023/11/07 10:39:17;;;;;;;4.75;1.70;;;10.60;99.90;;;;;;4973239;28;20038;-87
2023/11/07 10:41:44;;;;;;;6.18;1.95;;;10.60;99.90;;;;;;4973908;28;20031;-87
2023/11/07 10:44:23;;;;;;;7.97;2.20;;;10.60;99.90;;;;;;4974357;28;20031;-87
2023/11/07 10:46:49;;;;;;;6.07;2.45;;;10.60;99.90;;;;;;4967443;28;20031;-86
2023/11/07 10:49:16;;;;;;;3.95;1.92;;;10.60;99.90;;;;;;4955372;28;20115;-86
2023/11/07 10:51:42;;;;;;;8.60;1.98;;;11.00;99.90;;;;;;4972997;28;20038;-86
2023/11/07 10:54:07;;;;;;;6.25;1.85;;;10.60;99.90;;;;;;4973697;28;20030;-86
2023/11/07 10:56:38;;;;;;;8.57;2.25;;;10.60;99.90;;;;;;4974000;28;20161;-86
2023/11/07 10:59:16;;;;;;;3.03;1.73;;;10.60;99.90;;;;;;4974238;28;20051;-86
2023/11/07 11:01:46;;;;;;;3.78;1.90;;;10.70;99.90;;;;;;4973636;28;20039;-87
2023/11/07 11:04:13;;;;;;;9.35;1.98;;;10.70;99.90;;;;;;4974119;28;20491;-86
2023/11/07 11:06:44;;;;;;;2.83;1.45;;;10.70;99.90;;;;;;4963640;28;20032;-87
2023/11/07 11:09:11;;;;;;;5.03;1.90;;;10.70;99.90;;;;;;4965506;28;20034;-86
2023/11/07 11:11:38;;;;;;;3.35;1.52;;;10.80;99.90;;;;;;4958392;28;20023;-87
2023/11/07 11:14:08;;;;;;;2.42;1.90;;;10.80;99.90;;;;;;4954317;28;20079;-86
2023/11/07 11:16:39;;;;;;;7.63;3.58;;;11.20;99.90;;;;;;4954596;28;20023;-85
2023/11/07 11:19:29;;;;;;;7.40;2.30;;;10.80;99.90;;;;;;4954828;28;20111;-87
2023/11/07 11:22:14;;;;;;;;;;;10.90;99.90;;;;;;4956078;28;20476;-85
2023/11/07 11:25:24;;;;;;;9.27;1.88;;;10.90;99.90;;;;;;4971093;28;19910;-86
2023/11/07 11:28:00;;;;;;;4.72;1.58;;;11.00;99.90;;;;;;4970636;28;20035;-87
2023/11/07 11:30:31;;;;;;;12.95;3.35;;;11.10;99.90;;;;;;4973669;28;20077;-86
2023/11/07 11:33:11;;;;;;;5.53;1.80;;;11.10;99.90;;;;;;4972539;28;20031;-86
2023/11/07 11:35:43;;;;;;;6.87;1.87;;;11.20;99.90;;;;;;4973446;28;20387;-86
2023/11/07 11:38:19;;;;;;;5.07;1.52;;;11.20;99.90;;;;;;4974304;28;20073;-89
2023/11/07 11:40:59;;;;;;;7.25;1.50;;;11.30;99.90;;;;;;4965021;28;20070;-86
2023/11/07 11:43:25;;;;;;;3.30;1.30;;;11.40;99.90;;;;;;4977509;28;20042;-82
2023/11/07 11:45:52;;;;;;;6.22;1.77;;;11.40;99.90;;;;;;4970015;28;20042;-82
2023/11/07 11:48:39;;;;;;;4.57;1.40;;;11.40;99.90;;;;;;4960213;28;20081;-83
2023/11/07 11:51:40;;;;;;;4.18;1.20;;;11.40;99.90;;;;;;4967776;28;20034;-82
2023/11/07 11:54:24;;;;;;;3.72;1.77;;;11.50;99.90;;;;;;4971841;28;20054;-83
2023/11/07 11:56:50;;;;;;;8.65;2.17;;;11.50;99.90;;;;;;4965746;28;20039;-82
2023/11/07 11:59:20;;;;;;;4.88;1.77;;;11.60;99.90;;;;;;4971461;28;20427;-82
2023/11/07 12:02:05;;;;;;;5.05;1.80;;;11.60;99.90;;;;;;4965643;28;20035;-81
2023/11/07 12:04:47;;;;;;;8.85;2.30;;;11.60;99.90;;;;;;4972521;28;20119;-82
2023/11/07 12:07:13;;;;;;;5.43;1.55;;;11.60;99.90;;;;;;4966893;28;20031;-83
2023/11/07 12:09:57;;;;;;;11.60;2.92;;;11.70;99.90;;;;;;4962008;28;20023;-82
2023/11/07 12:12:24;;;;;;;5.22;1.38;;;11.70;99.90;;;;;;4963485;28;20698;-83
2023/11/07 12:14:51;;;;;;;6.40;2.10;;;11.60;99.90;;;;;;4958231;28;20038;-82
2023/11/07 12:17:17;;;;;;;11.32;1.92;;;11.80;99.90;;;;;;4961725;28;20023;-83
2023/11/07 12:19:45;;;;;;;8.27;1.70;;;11.80;99.90;;;;;;4955402;28;20028;-82
2023/11/07 12:22:11;;;;;;;6.47;1.85;;;11.80;99.90;;;;;;4966918;28;20035;-82
2023/11/07 12:24:38;;;;;;;6.53;1.98;;;11.90;99.90;;;;;;4964499;28;20027;-83
2023/11/07 12:27:04;;;;;;;7.43;2.05;;;11.90;99.90;;;;;;4969127;28;20054;-87
2023/11/07 12:29:31;;;;;;;7.47;2.45;;;11.80;99.90;;;;;;4965773;28;20070;-82
2023/11/07 12:31:56;;;;;;;6.88;2.10;;;11.80;99.90;;;;;;4966129;28;20102;-82
2023/11/07 12:34:36;;;;;;;9.95;1.65;;;11.80;99.90;;;;;;4975067;28;20098;-83
2023/11/07 12:37:07;;;;;;;9.37;2.50;;;11.90;99.90;;;;;;4976212;28;20029;-83
2023/11/07 12:39:34;;;;;;;3.13;1.50;;;11.90;99.90;;;;;;4975337;28;20066;-83
2023/11/07 12:42:00;;;;;;;8.75;2.13;;;11.90;99.90;;;;;;4982405;28;20483;-82
2023/11/07 12:44:27;;;;;;;7.75;2.70;;;11.90;99.90;;;;;;4995376;28;20026;-83
2023/11/07 12:46:54;;;;;;;10.15;1.80;;;12.00;99.90;;;;;;4996458;28;20026;-83
2023/11/07 12:49:19;;;;;;;9.73;1.90;;;12.00;99.90;;;;;;4997715;28;20050;-83
2023/11/07 12:51:46;;;;;;;10.82;2.72;;;12.00;99.90;;;;;;4997218;28;20646;-82